sensor_id;sensor_type;location;lat;lon;timestamp;P1;durP1;ratioP1;P2;durP2;ratioP2
34200;SDS011;20469;55.638;37.670;2022-08-30T00:01:23;13.30;;;5.88;;
34200;SDS011;20469;55.638;37.670;2022-08-30T00:03:56;17.35;;;7.47;;
34200;SDS011;20469;55.638;37.670;2022-08-30T00:06:24;14.70;;;6.90;;
34200;SDS011;20469;55.638;37.670;2022-08-30T00:08:54;10.05;;;5.70;;
34200;SDS011;20469;55.638;37.670;2022-08-30T00:11:24;12.43;;;5.85;;
34200;SDS011;20469;55.638;37.670;2022-08-30T00:13:54;16.63;;;6.60;;
34200;SDS011;20469;55.638;37.670;2022-08-30T00:16:22;13.88;;;6.28;;
34200;SDS011;20469;55.638;37.670;2022-08-30T00:18:50;14.73;;;6.30;;
34200;SDS011;20469;55.638;37.670;2022-08-30T00:21:17;14.75;;;6.55;;
34200;SDS011;20469;55.638;37.670;2022-08-30T00:23:44;11.20;;;6.18;;
34200;SDS011;20469;55.638;37.670;2022-08-30T00:26:12;13.00;;;6.50;;
34200;SDS011;20469;55.638;37.670;2022-08-30T00:28:42;14.38;;;6.13;;
34200;SDS011;20469;55.638;37.670;2022-08-30T00:31:09;16.25;;;6.95;;
34200;SDS011;20469;55.638;37.670;2022-08-30T00:33:41;14.30;;;7.28;;
34200;SDS011;20469;55.638;37.670;2022-08-30T00:36:08;15.75;;;6.65;;
34200;SDS011;20469;55.638;37.670;2022-08-30T00:38:35;12.98;;;5.82;;
34200;SDS011;20469;55.638;37.670;2022-08-30T00:41:03;13.68;;;6.47;;
34200;SDS011;20469;55.638;37.670;2022-08-30T00:43:31;11.95;;;6.63;;
34200;SDS011;20469;55.638;37.670;2022-08-30T00:46:02;16.70;;;6.78;;
34200;SDS011;20469;55.638;37.670;2022-08-30T00:48:35;15.35;;;6.32;;
34200;SDS011;20469;55.638;37.670;2022-08-30T00:51:09;14.35;;;6.68;;
34200;SDS011;20469;55.638;37.670;2022-08-30T00:53:39;14.45;;;6.70;;
34200;SDS011;20469;55.638;37.670;2022-08-30T00:56:09;13.07;;;6.90;;
34200;SDS011;20469;55.638;37.670;2022-08-30T00:58:39;13.65;;;6.47;;
34200;SDS011;20469;55.638;37.670;2022-08-30T01:01:09;14.52;;;6.68;;
34200;SDS011;20469;55.638;37.670;2022-08-30T01:03:38;14.45;;;6.57;;
34200;SDS011;20469;55.638;37.670;2022-08-30T01:06:06;15.77;;;6.53;;
34200;SDS011;20469;55.638;37.670;2022-08-30T01:08:33;16.27;;;6.63;;
34200;SDS011;20469;55.638;37.670;2022-08-30T01:11:01;14.15;;;6.90;;
34200;SDS011;20469;55.638;37.670;2022-08-30T01:13:31;14.73;;;6.38;;
34200;SDS011;20469;55.638;37.670;2022-08-30T01:16:00;12.88;;;7.00;;
34200;SDS011;20469;55.638;37.670;2022-08-30T01:18:29;15.25;;;7.20;;
34200;SDS011;20469;55.638;37.670;2022-08-30T01:21:08;13.10;;;7.05;;
34200;SDS011;20469;55.638;37.670;2022-08-30T01:23:58;13.65;;;6.40;;
34200;SDS011;20469;55.638;37.670;2022-08-30T01:26:27;18.10;;;6.63;;
34200;SDS011;20469;55.638;37.670;2022-08-30T01:28:58;14.13;;;7.47;;
34200;SDS011;20469;55.638;37.670;2022-08-30T01:31:32;18.25;;;7.18;;
34200;SDS011;20469;55.638;37.670;2022-08-30T01:34:03;15.65;;;6.75;;
34200;SDS011;20469;55.638;37.670;2022-08-30T01:36:34;16.05;;;7.28;;
34200;SDS011;20469;55.638;37.670;2022-08-30T01:41:43;13.10;;;6.32;;
34200;SDS011;20469;55.638;37.670;2022-08-30T01:44:11;15.25;;;6.80;;
34200;SDS011;20469;55.638;37.670;2022-08-30T01:46:43;13.50;;;6.72;;
34200;SDS011;20469;55.638;37.670;2022-08-30T01:49:13;15.00;;;7.35;;
34200;SDS011;20469;55.638;37.670;2022-08-30T01:51:48;18.05;;;7.18;;
34200;SDS011;20469;55.638;37.670;2022-08-30T01:54:25;19.50;;;7.20;;
34200;SDS011;20469;55.638;37.670;2022-08-30T01:57:02;16.33;;;7.55;;
34200;SDS011;20469;55.638;37.670;2022-08-30T01:59:30;19.08;;;7.90;;
34200;SDS011;20469;55.638;37.670;2022-08-30T02:01:58;15.05;;;7.57;;
34200;SDS011;20469;55.638;37.670;2022-08-30T02:04:26;17.13;;;7.03;;
34200;SDS011;20469;55.638;37.670;2022-08-30T02:06:53;15.90;;;7.22;;
34200;SDS011;20469;55.638;37.670;2022-08-30T02:09:20;14.77;;;7.13;;
34200;SDS011;20469;55.638;37.670;2022-08-30T02:11:47;14.98;;;7.60;;
34200;SDS011;20469;55.638;37.670;2022-08-30T02:14:15;15.75;;;7.40;;
34200;SDS011;20469;55.638;37.670;2022-08-30T02:16:46;18.77;;;7.43;;
34200;SDS011;20469;55.638;37.670;2022-08-30T02:19:14;13.38;;;7.43;;
34200;SDS011;20469;55.638;37.670;2022-08-30T02:21:41;15.15;;;7.68;;
34200;SDS011;20469;55.638;37.670;2022-08-30T02:24:09;16.42;;;7.90;;
34200;SDS011;20469;55.638;37.670;2022-08-30T02:26:36;17.73;;;7.78;;
34200;SDS011;20469;55.638;37.670;2022-08-30T02:29:04;17.08;;;7.78;;
34200;SDS011;20469;55.638;37.670;2022-08-30T02:31:31;14.45;;;7.60;;
34200;SDS011;20469;55.638;37.670;2022-08-30T02:33:59;18.77;;;7.55;;
34200;SDS011;20469;55.638;37.670;2022-08-30T02:36:26;18.73;;;8.30;;
34200;SDS011;20469;55.638;37.670;2022-08-30T02:38:53;17.20;;;7.97;;
34200;SDS011;20469;55.638;37.670;2022-08-30T02:41:21;21.30;;;8.07;;
34200;SDS011;20469;55.638;37.670;2022-08-30T02:43:49;19.23;;;7.85;;
34200;SDS011;20469;55.638;37.670;2022-08-30T02:46:17;16.90;;;8.35;;
34200;SDS011;20469;55.638;37.670;2022-08-30T02:48:45;18.60;;;7.90;;
34200;SDS011;20469;55.638;37.670;2022-08-30T02:51:12;19.17;;;8.55;;
34200;SDS011;20469;55.638;37.670;2022-08-30T02:53:40;19.27;;;8.95;;
34200;SDS011;20469;55.638;37.670;2022-08-30T02:56:09;18.63;;;8.07;;
34200;SDS011;20469;55.638;37.670;2022-08-30T02:58:38;18.42;;;8.13;;
34200;SDS011;20469;55.638;37.670;2022-08-30T03:01:08;16.55;;;7.75;;
34200;SDS011;20469;55.638;37.670;2022-08-30T03:03:38;17.63;;;8.05;;
34200;SDS011;20469;55.638;37.670;2022-08-30T03:06:06;19.38;;;7.60;;
34200;SDS011;20469;55.638;37.670;2022-08-30T03:08:33;21.00;;;9.40;;
34200;SDS011;20469;55.638;37.670;2022-08-30T03:11:01;17.58;;;7.80;;
34200;SDS011;20469;55.638;37.670;2022-08-30T03:13:28;15.38;;;7.32;;
34200;SDS011;20469;55.638;37.670;2022-08-30T03:15:56;17.05;;;7.30;;
34200;SDS011;20469;55.638;37.670;2022-08-30T03:18:24;17.67;;;7.65;;
34200;SDS011;20469;55.638;37.670;2022-08-30T03:20:52;20.58;;;8.57;;
34200;SDS011;20469;55.638;37.670;2022-08-30T03:23:20;19.30;;;8.18;;
34200;SDS011;20469;55.638;37.670;2022-08-30T03:25:49;17.50;;;7.88;;
34200;SDS011;20469;55.638;37.670;2022-08-30T03:28:16;15.43;;;7.50;;
34200;SDS011;20469;55.638;37.670;2022-08-30T03:30:43;17.08;;;8.35;;
34200;SDS011;20469;55.638;37.670;2022-08-30T03:33:10;17.48;;;8.32;;
34200;SDS011;20469;55.638;37.670;2022-08-30T03:35:38;19.73;;;7.72;;
34200;SDS011;20469;55.638;37.670;2022-08-30T03:38:06;15.52;;;8.15;;
34200;SDS011;20469;55.638;37.670;2022-08-30T03:40:33;18.13;;;7.57;;
34200;SDS011;20469;55.638;37.670;2022-08-30T03:43:01;19.23;;;7.90;;
34200;SDS011;20469;55.638;37.670;2022-08-30T03:45:30;14.73;;;8.18;;
34200;SDS011;20469;55.638;37.670;2022-08-30T03:47:58;19.40;;;8.18;;
34200;SDS011;20469;55.638;37.670;2022-08-30T03:50:25;15.30;;;8.60;;
34200;SDS011;20469;55.638;37.670;2022-08-30T03:52:53;15.85;;;8.07;;
34200;SDS011;20469;55.638;37.670;2022-08-30T03:55:20;17.15;;;8.60;;
34200;SDS011;20469;55.638;37.670;2022-08-30T03:57:48;22.10;;;8.60;;
34200;SDS011;20469;55.638;37.670;2022-08-30T04:00:17;19.30;;;8.40;;
34200;SDS011;20469;55.638;37.670;2022-08-30T04:02:44;15.38;;;8.18;;
34200;SDS011;20469;55.638;37.670;2022-08-30T04:05:11;17.33;;;8.25;;
34200;SDS011;20469;55.638;37.670;2022-08-30T04:07:43;16.67;;;8.47;;
34200;SDS011;20469;55.638;37.670;2022-08-30T04:10:11;20.38;;;8.55;;
34200;SDS011;20469;55.638;37.670;2022-08-30T04:12:38;14.98;;;8.35;;
34200;SDS011;20469;55.638;37.670;2022-08-30T04:15:06;14.82;;;7.93;;
34200;SDS011;20469;55.638;37.670;2022-08-30T04:17:36;19.95;;;9.90;;
34200;SDS011;20469;55.638;37.670;2022-08-30T04:20:03;16.83;;;9.00;;
34200;SDS011;20469;55.638;37.670;2022-08-30T04:22:31;15.77;;;8.68;;
34200;SDS011;20469;55.638;37.670;2022-08-30T04:24:58;15.98;;;9.32;;
34200;SDS011;20469;55.638;37.670;2022-08-30T04:27:28;17.83;;;8.95;;
34200;SDS011;20469;55.638;37.670;2022-08-30T04:29:55;19.10;;;9.23;;
34200;SDS011;20469;55.638;37.670;2022-08-30T04:32:23;22.05;;;9.27;;
34200;SDS011;20469;55.638;37.670;2022-08-30T04:34:54;16.60;;;9.57;;
34200;SDS011;20469;55.638;37.670;2022-08-30T04:37:23;16.67;;;9.18;;
34200;SDS011;20469;55.638;37.670;2022-08-30T04:39:56;18.15;;;9.30;;
34200;SDS011;20469;55.638;37.670;2022-08-30T04:42:26;18.85;;;8.73;;
34200;SDS011;20469;55.638;37.670;2022-08-30T04:44:58;22.35;;;9.05;;
34200;SDS011;20469;55.638;37.670;2022-08-30T04:47:29;17.63;;;9.55;;
34200;SDS011;20469;55.638;37.670;2022-08-30T04:49:56;20.60;;;9.82;;
34200;SDS011;20469;55.638;37.670;2022-08-30T04:52:23;19.98;;;9.35;;
34200;SDS011;20469;55.638;37.670;2022-08-30T04:54:54;19.45;;;9.80;;
34200;SDS011;20469;55.638;37.670;2022-08-30T04:57:22;16.10;;;9.32;;
34200;SDS011;20469;55.638;37.670;2022-08-30T04:59:51;17.88;;;10.38;;
34200;SDS011;20469;55.638;37.670;2022-08-30T05:02:19;19.75;;;9.95;;
34200;SDS011;20469;55.638;37.670;2022-08-30T05:04:46;18.08;;;9.98;;
34200;SDS011;20469;55.638;37.670;2022-08-30T05:07:32;18.10;;;9.98;;
34200;SDS011;20469;55.638;37.670;2022-08-30T05:10:00;19.75;;;10.70;;
34200;SDS011;20469;55.638;37.670;2022-08-30T05:12:28;20.50;;;10.68;;
34200;SDS011;20469;55.638;37.670;2022-08-30T05:14:55;21.23;;;10.52;;
34200;SDS011;20469;55.638;37.670;2022-08-30T05:17:23;20.42;;;10.38;;
34200;SDS011;20469;55.638;37.670;2022-08-30T05:19:51;20.75;;;11.13;;
34200;SDS011;20469;55.638;37.670;2022-08-30T05:22:18;20.48;;;10.95;;
34200;SDS011;20469;55.638;37.670;2022-08-30T05:24:45;21.75;;;12.10;;
34200;SDS011;20469;55.638;37.670;2022-08-30T05:27:12;20.67;;;10.38;;
34200;SDS011;20469;55.638;37.670;2022-08-30T05:29:45;21.85;;;10.50;;
34200;SDS011;20469;55.638;37.670;2022-08-30T05:32:12;17.50;;;10.77;;
34200;SDS011;20469;55.638;37.670;2022-08-30T05:34:40;18.02;;;10.57;;
34200;SDS011;20469;55.638;37.670;2022-08-30T05:37:07;21.35;;;11.27;;
34200;SDS011;20469;55.638;37.670;2022-08-30T05:39:34;21.95;;;11.80;;
34200;SDS011;20469;55.638;37.670;2022-08-30T05:42:16;20.10;;;11.75;;
34200;SDS011;20469;55.638;37.670;2022-08-30T05:44:43;24.73;;;10.02;;
34200;SDS011;20469;55.638;37.670;2022-08-30T05:47:10;20.48;;;11.23;;
34200;SDS011;20469;55.638;37.670;2022-08-30T05:49:38;17.55;;;11.05;;
34200;SDS011;20469;55.638;37.670;2022-08-30T05:52:05;20.90;;;10.55;;
34200;SDS011;20469;55.638;37.670;2022-08-30T05:54:32;21.42;;;10.77;;
34200;SDS011;20469;55.638;37.670;2022-08-30T05:56:59;21.38;;;11.57;;
34200;SDS011;20469;55.638;37.670;2022-08-30T05:59:31;18.55;;;10.23;;
34200;SDS011;20469;55.638;37.670;2022-08-30T06:02:09;18.45;;;11.50;;
34200;SDS011;20469;55.638;37.670;2022-08-30T06:04:36;20.48;;;11.75;;
34200;SDS011;20469;55.638;37.670;2022-08-30T06:07:03;17.55;;;10.05;;
34200;SDS011;20469;55.638;37.670;2022-08-30T06:09:31;19.77;;;10.90;;
34200;SDS011;20469;55.638;37.670;2022-08-30T06:11:58;20.13;;;11.40;;
34200;SDS011;20469;55.638;37.670;2022-08-30T06:14:26;17.88;;;9.82;;
34200;SDS011;20469;55.638;37.670;2022-08-30T06:16:53;17.17;;;11.05;;
34200;SDS011;20469;55.638;37.670;2022-08-30T06:19:20;19.33;;;10.40;;
34200;SDS011;20469;55.638;37.670;2022-08-30T06:21:48;18.63;;;10.40;;
34200;SDS011;20469;55.638;37.670;2022-08-30T06:24:17;20.85;;;11.20;;
34200;SDS011;20469;55.638;37.670;2022-08-30T06:26:50;19.83;;;10.77;;
34200;SDS011;20469;55.638;37.670;2022-08-30T06:29:18;24.70;;;10.82;;
34200;SDS011;20469;55.638;37.670;2022-08-30T06:31:46;19.40;;;10.48;;
34200;SDS011;20469;55.638;37.670;2022-08-30T06:34:14;21.88;;;11.38;;
34200;SDS011;20469;55.638;37.670;2022-08-30T06:36:42;19.10;;;10.02;;
34200;SDS011;20469;55.638;37.670;2022-08-30T06:39:09;18.10;;;10.27;;
34200;SDS011;20469;55.638;37.670;2022-08-30T06:41:36;30.70;;;14.68;;
34200;SDS011;20469;55.638;37.670;2022-08-30T06:44:05;16.27;;;10.18;;
34200;SDS011;20469;55.638;37.670;2022-08-30T06:46:34;16.00;;;10.20;;
34200;SDS011;20469;55.638;37.670;2022-08-30T06:49:04;17.30;;;10.55;;
34200;SDS011;20469;55.638;37.670;2022-08-30T06:51:34;18.73;;;10.57;;
34200;SDS011;20469;55.638;37.670;2022-08-30T06:54:05;16.48;;;9.57;;
34200;SDS011;20469;55.638;37.670;2022-08-30T06:56:38;16.25;;;10.15;;
34200;SDS011;20469;55.638;37.670;2022-08-30T06:59:23;16.52;;;9.80;;
34200;SDS011;20469;55.638;37.670;2022-08-30T07:01:52;17.85;;;9.95;;
34200;SDS011;20469;55.638;37.670;2022-08-30T07:04:20;18.17;;;10.38;;
34200;SDS011;20469;55.638;37.670;2022-08-30T07:06:48;16.85;;;10.55;;
34200;SDS011;20469;55.638;37.670;2022-08-30T07:09:16;21.33;;;10.30;;
34200;SDS011;20469;55.638;37.670;2022-08-30T07:11:48;20.75;;;9.80;;
34200;SDS011;20469;55.638;37.670;2022-08-30T07:14:16;16.85;;;10.13;;
34200;SDS011;20469;55.638;37.670;2022-08-30T07:16:44;13.80;;;10.18;;
34200;SDS011;20469;55.638;37.670;2022-08-30T07:19:16;15.48;;;9.80;;
34200;SDS011;20469;55.638;37.670;2022-08-30T07:21:47;18.02;;;9.90;;
34200;SDS011;20469;55.638;37.670;2022-08-30T07:24:15;23.50;;;10.63;;
34200;SDS011;20469;55.638;37.670;2022-08-30T07:26:48;18.85;;;10.52;;
34200;SDS011;20469;55.638;37.670;2022-08-30T07:29:18;21.05;;;10.68;;
34200;SDS011;20469;55.638;37.670;2022-08-30T07:31:51;16.88;;;10.10;;
34200;SDS011;20469;55.638;37.670;2022-08-30T07:34:19;17.55;;;9.95;;
34200;SDS011;20469;55.638;37.670;2022-08-30T07:36:48;16.75;;;10.25;;
34200;SDS011;20469;55.638;37.670;2022-08-30T07:39:15;19.80;;;10.05;;
34200;SDS011;20469;55.638;37.670;2022-08-30T07:41:43;19.75;;;10.35;;
34200;SDS011;20469;55.638;37.670;2022-08-30T07:44:11;20.25;;;10.13;;
34200;SDS011;20469;55.638;37.670;2022-08-30T07:46:38;17.17;;;9.82;;
34200;SDS011;20469;55.638;37.670;2022-08-30T07:49:06;17.65;;;11.10;;
34200;SDS011;20469;55.638;37.670;2022-08-30T07:51:37;16.80;;;9.60;;
34200;SDS011;20469;55.638;37.670;2022-08-30T07:54:11;16.92;;;9.90;;
34200;SDS011;20469;55.638;37.670;2022-08-30T07:56:39;15.02;;;10.52;;
34200;SDS011;20469;55.638;37.670;2022-08-30T07:59:06;20.38;;;10.38;;
34200;SDS011;20469;55.638;37.670;2022-08-30T08:01:33;16.77;;;10.10;;
34200;SDS011;20469;55.638;37.670;2022-08-30T08:04:11;15.68;;;10.02;;
34200;SDS011;20469;55.638;37.670;2022-08-30T08:06:39;16.17;;;10.10;;
34200;SDS011;20469;55.638;37.670;2022-08-30T08:09:07;16.48;;;9.55;;
34200;SDS011;20469;55.638;37.670;2022-08-30T08:11:35;16.92;;;10.30;;
34200;SDS011;20469;55.638;37.670;2022-08-30T08:14:03;17.55;;;10.43;;
34200;SDS011;20469;55.638;37.670;2022-08-30T08:16:33;18.05;;;10.02;;
34200;SDS011;20469;55.638;37.670;2022-08-30T08:19:01;13.45;;;8.88;;
34200;SDS011;20469;55.638;37.670;2022-08-30T08:21:29;12.77;;;9.00;;
34200;SDS011;20469;55.638;37.670;2022-08-30T08:23:57;14.75;;;8.90;;
34200;SDS011;20469;55.638;37.670;2022-08-30T08:26:24;14.65;;;9.18;;
34200;SDS011;20469;55.638;37.670;2022-08-30T08:28:51;16.30;;;8.90;;
34200;SDS011;20469;55.638;37.670;2022-08-30T08:31:20;16.98;;;8.75;;
34200;SDS011;20469;55.638;37.670;2022-08-30T08:33:59;11.80;;;8.80;;
34200;SDS011;20469;55.638;37.670;2022-08-30T08:36:29;14.60;;;9.27;;
34200;SDS011;20469;55.638;37.670;2022-08-30T08:38:57;16.33;;;9.18;;
34200;SDS011;20469;55.638;37.670;2022-08-30T08:41:45;12.40;;;8.77;;
34200;SDS011;20469;55.638;37.670;2022-08-30T08:49:52;16.13;;;9.50;;
34200;SDS011;20469;55.638;37.670;2022-08-30T08:52:47;20.95;;;8.60;;
34200;SDS011;20469;55.638;37.670;2022-08-30T08:55:50;13.88;;;8.80;;
34200;SDS011;20469;55.638;37.670;2022-08-30T08:58:23;17.98;;;9.48;;
34200;SDS011;20469;55.638;37.670;2022-08-30T09:00:56;16.00;;;9.43;;
34200;SDS011;20469;55.638;37.670;2022-08-30T09:03:27;12.85;;;9.18;;
34200;SDS011;20469;55.638;37.670;2022-08-30T09:05:55;16.73;;;10.10;;
34200;SDS011;20469;55.638;37.670;2022-08-30T09:08:31;26.27;;;10.93;;
34200;SDS011;20469;55.638;37.670;2022-08-30T09:11:03;19.83;;;10.75;;
34200;SDS011;20469;55.638;37.670;2022-08-30T09:13:38;17.40;;;10.20;;
34200;SDS011;20469;55.638;37.670;2022-08-30T09:16:05;16.80;;;10.63;;
34200;SDS011;20469;55.638;37.670;2022-08-30T09:18:43;20.52;;;11.57;;
34200;SDS011;20469;55.638;37.670;2022-08-30T09:21:19;19.25;;;10.80;;
34200;SDS011;20469;55.638;37.670;2022-08-30T09:24:00;14.52;;;10.95;;
34200;SDS011;20469;55.638;37.670;2022-08-30T09:26:36;18.60;;;11.75;;
34200;SDS011;20469;55.638;37.670;2022-08-30T09:29:07;15.80;;;12.02;;
34200;SDS011;20469;55.638;37.670;2022-08-30T09:31:50;19.98;;;12.00;;
34200;SDS011;20469;55.638;37.670;2022-08-30T09:34:42;17.67;;;12.95;;
34200;SDS011;20469;55.638;37.670;2022-08-30T09:37:20;18.83;;;12.25;;
34200;SDS011;20469;55.638;37.670;2022-08-30T09:39:51;14.82;;;11.07;;
34200;SDS011;20469;55.638;37.670;2022-08-30T09:42:21;18.67;;;12.30;;
34200;SDS011;20469;55.638;37.670;2022-08-30T09:44:52;17.77;;;12.32;;
34200;SDS011;20469;55.638;37.670;2022-08-30T09:47:37;18.75;;;12.68;;
34200;SDS011;20469;55.638;37.670;2022-08-30T09:58:21;21.48;;;13.43;;
34200;SDS011;20469;55.638;37.670;2022-08-30T10:03:49;21.83;;;12.60;;
34200;SDS011;20469;55.638;37.670;2022-08-30T10:06:54;18.38;;;12.88;;
34200;SDS011;20469;55.638;37.670;2022-08-30T10:09:44;17.10;;;12.07;;
34200;SDS011;20469;55.638;37.670;2022-08-30T10:15:18;19.60;;;12.30;;
34200;SDS011;20469;55.638;37.670;2022-08-30T10:17:55;20.23;;;13.05;;
34200;SDS011;20469;55.638;37.670;2022-08-30T10:23:39;17.20;;;11.32;;
34200;SDS011;20469;55.638;37.670;2022-08-30T10:26:26;18.73;;;12.07;;
34200;SDS011;20469;55.638;37.670;2022-08-30T10:29:03;18.08;;;12.00;;
34200;SDS011;20469;55.638;37.670;2022-08-30T10:31:38;19.27;;;12.60;;
34200;SDS011;20469;55.638;37.670;2022-08-30T10:34:39;20.95;;;12.05;;
34200;SDS011;20469;55.638;37.670;2022-08-30T10:37:12;16.85;;;12.68;;
34200;SDS011;20469;55.638;37.670;2022-08-30T10:39:46;22.60;;;13.18;;
34200;SDS011;20469;55.638;37.670;2022-08-30T10:42:18;15.57;;;12.00;;
34200;SDS011;20469;55.638;37.670;2022-08-30T10:44:49;20.27;;;12.98;;
34200;SDS011;20469;55.638;37.670;2022-08-30T10:50:12;21.92;;;12.10;;
34200;SDS011;20469;55.638;37.670;2022-08-30T10:52:50;19.17;;;12.15;;
34200;SDS011;20469;55.638;37.670;2022-08-30T10:55:30;18.10;;;11.68;;
34200;SDS011;20469;55.638;37.670;2022-08-30T10:58:03;15.30;;;11.25;;
34200;SDS011;20469;55.638;37.670;2022-08-30T11:00:38;19.23;;;11.05;;
34200;SDS011;20469;55.638;37.670;2022-08-30T11:11:46;17.08;;;10.88;;
34200;SDS011;20469;55.638;37.670;2022-08-30T11:14:22;12.75;;;9.73;;
34200;SDS011;20469;55.638;37.670;2022-08-30T11:16:52;13.70;;;9.25;;
34200;SDS011;20469;55.638;37.670;2022-08-30T11:21:51;13.45;;;9.32;;
34200;SDS011;20469;55.638;37.670;2022-08-30T11:24:57;14.25;;;9.07;;
34200;SDS011;20469;55.638;37.670;2022-08-30T11:27:41;14.75;;;8.48;;
34200;SDS011;20469;55.638;37.670;2022-08-30T11:35:46;17.77;;;8.68;;
34200;SDS011;20469;55.638;37.670;2022-08-30T11:38:55;11.70;;;8.35;;
34200;SDS011;20469;55.638;37.670;2022-08-30T11:41:13;11.73;;;8.27;;
34200;SDS011;20469;55.638;37.670;2022-08-30T11:46:54;17.55;;;9.80;;
34200;SDS011;20469;55.638;37.670;2022-08-30T12:00:41;14.98;;;8.02;;
34200;SDS011;20469;55.638;37.670;2022-08-30T12:06:06;12.07;;;7.38;;
34200;SDS011;20469;55.638;37.670;2022-08-30T12:08:53;14.50;;;7.72;;
34200;SDS011;20469;55.638;37.670;2022-08-30T12:14:02;16.02;;;7.75;;
34200;SDS011;20469;55.638;37.670;2022-08-30T12:19:25;12.20;;;7.55;;
34200;SDS011;20469;55.638;37.670;2022-08-30T12:21:55;10.73;;;7.43;;
34200;SDS011;20469;55.638;37.670;2022-08-30T12:24:33;15.07;;;7.93;;
34200;SDS011;20469;55.638;37.670;2022-08-30T12:29:59;12.85;;;7.40;;
34200;SDS011;20469;55.638;37.670;2022-08-30T12:32:29;12.82;;;7.60;;
34200;SDS011;20469;55.638;37.670;2022-08-30T12:34:58;15.82;;;8.10;;
34200;SDS011;20469;55.638;37.670;2022-08-30T12:37:30;16.25;;;7.50;;
34200;SDS011;20469;55.638;37.670;2022-08-30T12:42:58;14.00;;;7.95;;
34200;SDS011;20469;55.638;37.670;2022-08-30T12:45:50;12.95;;;8.38;;
34200;SDS011;20469;55.638;37.670;2022-08-30T12:48:19;17.40;;;8.20;;
34200;SDS011;20469;55.638;37.670;2022-08-30T12:50:49;12.10;;;9.00;;
34200;SDS011;20469;55.638;37.670;2022-08-30T12:55:59;13.88;;;8.50;;
34200;SDS011;20469;55.638;37.670;2022-08-30T12:58:39;14.70;;;6.60;;
34200;SDS011;20469;55.638;37.670;2022-08-30T13:01:28;16.48;;;7.10;;
34200;SDS011;20469;55.638;37.670;2022-08-30T13:06:59;10.18;;;5.50;;
34200;SDS011;20469;55.638;37.670;2022-08-30T13:11:58;10.77;;;5.78;;
34200;SDS011;20469;55.638;37.670;2022-08-30T13:14:38;8.35;;;5.40;;
34200;SDS011;20469;55.638;37.670;2022-08-30T13:22:33;12.55;;;5.75;;
34200;SDS011;20469;55.638;37.670;2022-08-30T13:25:01;12.43;;;5.43;;
34200;SDS011;20469;55.638;37.670;2022-08-30T13:27:29;11.93;;;6.20;;
34200;SDS011;20469;55.638;37.670;2022-08-30T13:30:09;10.43;;;6.30;;
34200;SDS011;20469;55.638;37.670;2022-08-30T13:32:40;14.05;;;6.35;;
34200;SDS011;20469;55.638;37.670;2022-08-30T13:35:09;15.68;;;6.65;;
34200;SDS011;20469;55.638;37.670;2022-08-30T13:37:43;15.60;;;6.50;;
34200;SDS011;20469;55.638;37.670;2022-08-30T13:40:17;15.18;;;6.60;;
34200;SDS011;20469;55.638;37.670;2022-08-30T13:42:46;14.07;;;7.03;;
34200;SDS011;20469;55.638;37.670;2022-08-30T13:45:14;14.60;;;6.60;;
34200;SDS011;20469;55.638;37.670;2022-08-30T13:48:02;12.90;;;6.07;;
34200;SDS011;20469;55.638;37.670;2022-08-30T13:50:32;15.73;;;6.57;;
34200;SDS011;20469;55.638;37.670;2022-08-30T13:52:59;12.52;;;6.82;;
34200;SDS011;20469;55.638;37.670;2022-08-30T13:55:27;18.15;;;7.07;;
34200;SDS011;20469;55.638;37.670;2022-08-30T13:57:55;15.10;;;7.18;;
34200;SDS011;20469;55.638;37.670;2022-08-30T14:00:23;13.75;;;6.65;;
34200;SDS011;20469;55.638;37.670;2022-08-30T14:02:51;17.35;;;7.82;;
34200;SDS011;20469;55.638;37.670;2022-08-30T14:05:30;12.68;;;7.00;;
34200;SDS011;20469;55.638;37.670;2022-08-30T14:08:16;16.80;;;7.57;;
34200;SDS011;20469;55.638;37.670;2022-08-30T14:11:07;15.48;;;7.25;;
34200;SDS011;20469;55.638;37.670;2022-08-30T14:13:37;12.98;;;7.03;;
34200;SDS011;20469;55.638;37.670;2022-08-30T14:16:25;14.05;;;7.13;;
34200;SDS011;20469;55.638;37.670;2022-08-30T14:18:53;15.10;;;6.43;;
34200;SDS011;20469;55.638;37.670;2022-08-30T14:21:21;13.93;;;6.97;;
34200;SDS011;20469;55.638;37.670;2022-08-30T14:23:51;13.32;;;6.38;;
34200;SDS011;20469;55.638;37.670;2022-08-30T14:28:58;12.25;;;5.50;;
34200;SDS011;20469;55.638;37.670;2022-08-30T14:31:26;13.63;;;5.80;;
34200;SDS011;20469;55.638;37.670;2022-08-30T14:33:58;12.13;;;5.80;;
34200;SDS011;20469;55.638;37.670;2022-08-30T14:36:26;16.52;;;6.30;;
34200;SDS011;20469;55.638;37.670;2022-08-30T14:38:53;12.43;;;5.50;;
34200;SDS011;20469;55.638;37.670;2022-08-30T14:41:20;13.65;;;5.97;;
34200;SDS011;20469;55.638;37.670;2022-08-30T14:43:48;20.85;;;5.20;;
34200;SDS011;20469;55.638;37.670;2022-08-30T14:46:16;15.45;;;5.50;;
34200;SDS011;20469;55.638;37.670;2022-08-30T14:48:43;19.35;;;5.88;;
34200;SDS011;20469;55.638;37.670;2022-08-30T14:51:13;13.60;;;5.05;;
34200;SDS011;20469;55.638;37.670;2022-08-30T14:53:42;21.40;;;5.35;;
34200;SDS011;20469;55.638;37.670;2022-08-30T14:56:12;15.90;;;5.32;;
34200;SDS011;20469;55.638;37.670;2022-08-30T14:58:41;18.30;;;5.45;;
34200;SDS011;20469;55.638;37.670;2022-08-30T15:01:10;21.33;;;6.00;;
34200;SDS011;20469;55.638;37.670;2022-08-30T15:03:39;17.75;;;5.13;;
34200;SDS011;20469;55.638;37.670;2022-08-30T15:06:07;19.02;;;5.88;;
34200;SDS011;20469;55.638;37.670;2022-08-30T15:08:36;19.27;;;5.43;;
34200;SDS011;20469;55.638;37.670;2022-08-30T15:11:06;18.65;;;5.85;;
34200;SDS011;20469;55.638;37.670;2022-08-30T15:13:35;16.83;;;5.32;;
34200;SDS011;20469;55.638;37.670;2022-08-30T15:16:15;18.58;;;6.90;;
34200;SDS011;20469;55.638;37.670;2022-08-30T15:18:45;16.42;;;5.38;;
34200;SDS011;20469;55.638;37.670;2022-08-30T15:21:13;15.27;;;5.63;;
34200;SDS011;20469;55.638;37.670;2022-08-30T15:23:47;12.73;;;5.55;;
34200;SDS011;20469;55.638;37.670;2022-08-30T15:26:17;19.92;;;5.38;;
34200;SDS011;20469;55.638;37.670;2022-08-30T15:28:46;23.58;;;5.22;;
34200;SDS011;20469;55.638;37.670;2022-08-30T15:31:14;15.13;;;4.88;;
34200;SDS011;20469;55.638;37.670;2022-08-30T15:33:41;13.82;;;4.82;;
34200;SDS011;20469;55.638;37.670;2022-08-30T15:36:10;16.50;;;4.85;;
34200;SDS011;20469;55.638;37.670;2022-08-30T15:38:38;17.65;;;5.70;;
34200;SDS011;20469;55.638;37.670;2022-08-30T15:41:06;21.45;;;5.32;;
34200;SDS011;20469;55.638;37.670;2022-08-30T15:43:35;13.45;;;5.03;;
34200;SDS011;20469;55.638;37.670;2022-08-30T15:49:03;17.95;;;5.05;;
34200;SDS011;20469;55.638;37.670;2022-08-30T15:51:39;15.77;;;4.78;;
34200;SDS011;20469;55.638;37.670;2022-08-30T15:54:13;14.82;;;4.50;;
34200;SDS011;20469;55.638;37.670;2022-08-30T15:56:42;15.55;;;4.88;;
34200;SDS011;20469;55.638;37.670;2022-08-30T15:59:10;15.50;;;5.10;;
34200;SDS011;20469;55.638;37.670;2022-08-30T16:01:41;12.95;;;4.93;;
34200;SDS011;20469;55.638;37.670;2022-08-30T16:04:09;14.85;;;6.00;;
34200;SDS011;20469;55.638;37.670;2022-08-30T16:06:37;16.23;;;5.78;;
34200;SDS011;20469;55.638;37.670;2022-08-30T16:09:07;14.45;;;4.85;;
34200;SDS011;20469;55.638;37.670;2022-08-30T16:11:35;17.98;;;5.05;;
34200;SDS011;20469;55.638;37.670;2022-08-30T16:14:03;18.25;;;5.28;;